createdAt,value
2019-03-22T00:01:59.580Z,8.70
2019-03-22T00:04:29.751Z,8.50
2019-03-22T00:06:59.945Z,8.75
2019-03-22T00:09:30.255Z,8.48
2019-03-22T00:12:00.572Z,8.63
2019-03-22T00:14:30.846Z,8.53
2019-03-22T00:17:01.124Z,8.85
2019-03-22T00:19:31.269Z,8.80
2019-03-22T00:22:01.503Z,9.28
2019-03-22T00:24:31.692Z,8.78
2019-03-22T00:27:01.910Z,8.13
2019-03-22T00:29:32.156Z,8.90
2019-03-22T00:32:02.420Z,9.05
2019-03-22T00:34:32.622Z,8.45
2019-03-22T00:37:02.917Z,8.80
2019-03-22T00:39:33.237Z,8.33
2019-03-22T00:42:03.381Z,8.75
2019-03-22T00:44:33.594Z,8.55
2019-03-22T00:47:03.831Z,8.85
2019-03-22T00:49:34.186Z,8.58
2019-03-22T00:52:04.455Z,8.73
2019-03-22T00:54:34.600Z,8.83
2019-03-22T00:57:04.828Z,8.05
2019-03-22T00:59:35.044Z,8.10
2019-03-22T01:02:05.354Z,8.00
2019-03-22T01:04:35.671Z,8.30
2019-03-22T01:07:05.899Z,8.53
2019-03-22T01:09:36.130Z,7.75
2019-03-22T01:12:06.363Z,7.55
2019-03-22T01:14:36.656Z,7.80
2019-03-22T01:17:06.888Z,8.55
2019-03-22T01:19:37.004Z,8.58
2019-03-22T01:22:07.202Z,8.13
2019-03-22T01:24:37.369Z,7.65
2019-03-22T01:27:07.678Z,8.58
2019-03-22T01:29:37.847Z,8.55
2019-03-22T01:32:08.037Z,7.78
2019-03-22T01:34:38.270Z,8.30
2019-03-22T01:37:08.488Z,7.67
2019-03-22T01:39:38.716Z,7.90
2019-03-22T01:42:09.012Z,8.03
2019-03-22T01:44:39.292Z,8.03
2019-03-22T01:47:09.482Z,8.25
2019-03-22T01:49:39.732Z,7.53
2019-03-22T01:52:10.004Z,8.00
2019-03-22T01:54:40.234Z,7.72
2019-03-22T01:57:10.555Z,7.70
2019-03-22T01:59:40.705Z,8.13
2019-03-22T02:02:10.924Z,7.62
2019-03-22T02:04:41.158Z,7.92
2019-03-22T02:07:11.445Z,7.62
2019-03-22T02:09:41.781Z,7.58
2019-03-22T02:12:12.006Z,7.35
2019-03-22T02:14:42.258Z,7.67
2019-03-22T02:17:12.456Z,7.40
2019-03-22T02:19:42.769Z,7.58
2019-03-22T02:22:13.095Z,7.20
2019-03-22T02:24:43.473Z,7.17
2019-03-22T02:27:13.671Z,7.30
2019-03-22T02:29:44.513Z,7.67
2019-03-22T02:32:14.752Z,6.75
2019-03-22T02:34:44.938Z,7.92
2019-03-22T02:37:15.363Z,7.12
2019-03-22T02:39:45.823Z,7.95
2019-03-22T02:42:16.218Z,7.35
2019-03-22T02:44:46.530Z,7.20
2019-03-22T02:47:16.679Z,7.35
2019-03-22T02:49:46.909Z,7.00
2019-03-22T02:52:17.125Z,7.33
2019-03-22T02:54:47.437Z,7.67
2019-03-22T02:57:17.754Z,7.33
2019-03-22T02:59:48.008Z,7.40
2019-03-22T03:02:18.230Z,7.45
2019-03-22T03:04:48.454Z,7.17
2019-03-22T03:07:18.683Z,7.50
2019-03-22T03:09:48.972Z,7.70
2019-03-22T03:12:19.295Z,7.25
2019-03-22T03:14:49.454Z,7.25
2019-03-22T03:17:19.659Z,6.92
2019-03-22T03:19:49.891Z,7.12
2019-03-22T03:22:20.180Z,7.45
2019-03-22T03:24:50.413Z,7.20
2019-03-22T03:27:20.549Z,7.08
2019-03-22T03:29:50.786Z,6.90
2019-03-22T03:32:21.020Z,7.67
2019-03-22T03:34:51.320Z,6.90
2019-03-22T03:37:21.529Z,7.08
2019-03-22T03:39:51.672Z,7.10
2019-03-22T03:42:21.907Z,6.67
2019-03-22T03:44:52.123Z,7.10
2019-03-22T03:47:22.409Z,6.60
2019-03-22T03:49:52.640Z,7.70
2019-03-22T03:52:22.887Z,7.20
2019-03-22T03:54:53.116Z,6.92
2019-03-22T03:57:23.324Z,7.10
2019-03-22T03:59:53.671Z,6.72
2019-03-22T04:02:23.952Z,7.40
2019-03-22T04:04:54.100Z,6.95
2019-03-22T04:07:24.336Z,6.80
2019-03-22T04:09:54.544Z,6.70
2019-03-22T04:12:24.848Z,6.22
2019-03-22T04:14:55.069Z,7.30
2019-03-22T04:17:25.230Z,6.70
2019-03-22T04:19:55.334Z,7.10
2019-03-22T04:22:25.561Z,6.87
2019-03-22T04:24:55.856Z,6.40
2019-03-22T04:27:26.089Z,6.95
2019-03-22T04:29:56.342Z,6.85
2019-03-22T04:32:26.557Z,6.90
2019-03-22T04:34:56.786Z,6.62
2019-03-22T04:37:27.083Z,6.15
2019-03-22T04:39:57.396Z,6.33
2019-03-22T04:42:27.554Z,6.47
2019-03-22T04:44:57.774Z,6.90
2019-03-22T04:47:28.045Z,6.78
2019-03-22T04:49:58.196Z,6.37
2019-03-22T04:52:28.413Z,6.50
2019-03-22T04:54:58.671Z,7.00
2019-03-22T04:57:28.886Z,7.40
2019-03-22T04:59:59.529Z,6.70
2019-03-22T05:02:29.735Z,6.45
2019-03-22T05:05:00.116Z,6.37
2019-03-22T05:07:30.585Z,6.47
2019-03-22T05:10:00.800Z,6.67
2019-03-22T05:12:30.977Z,6.37
2019-03-22T05:15:01.289Z,6.92
2019-03-22T05:17:33.259Z,6.50
2019-03-22T05:20:03.392Z,6.80
2019-03-22T05:22:33.615Z,6.83
2019-03-22T05:25:03.821Z,6.53
2019-03-22T05:27:34.106Z,7.25
2019-03-22T05:30:04.702Z,7.37
2019-03-22T05:32:34.872Z,6.72
2019-03-22T05:35:07.404Z,6.97
2019-03-22T05:37:37.347Z,6.37
2019-03-22T05:40:07.781Z,7.00
2019-03-22T05:42:37.983Z,7.92
2019-03-22T05:45:08.465Z,6.97
2019-03-22T05:47:38.657Z,7.28
2019-03-22T05:50:08.922Z,7.50
2019-03-22T05:52:39.103Z,7.90
2019-03-22T05:55:09.413Z,8.93
2019-03-22T05:57:39.640Z,8.73
2019-03-22T06:00:09.779Z,9.73
2019-03-22T06:02:40.003Z,11.38
2019-03-22T06:05:10.303Z,11.95
2019-03-22T06:07:40.567Z,11.75
2019-03-22T06:10:10.855Z,15.83
2019-03-22T06:12:40.998Z,15.15
2019-03-22T06:15:11.201Z,17.00
2019-03-22T06:17:51.157Z,16.85
2019-03-22T06:20:13.381Z,16.67
2019-03-22T06:22:43.613Z,15.53
2019-03-22T06:25:13.857Z,15.50
2019-03-22T06:27:44.080Z,15.50
2019-03-22T06:30:14.229Z,16.50
2019-03-22T06:32:44.505Z,15.50
2019-03-22T06:35:14.825Z,14.70
2019-03-22T06:37:44.957Z,13.45
2019-03-22T06:40:15.172Z,14.58
2019-03-22T06:42:45.414Z,13.40
2019-03-22T06:45:15.724Z,14.28
2019-03-22T06:47:45.947Z,13.10
2019-03-22T06:50:16.192Z,13.18
2019-03-22T06:52:46.142Z,13.28
2019-03-22T06:55:16.407Z,13.50
2019-03-22T06:57:46.635Z,13.70
2019-03-22T07:00:16.766Z,13.30
2019-03-22T07:02:46.993Z,12.95
2019-03-22T07:05:17.319Z,12.25
2019-03-22T07:07:47.526Z,12.98
2019-03-22T07:10:17.858Z,13.85
2019-03-22T07:12:48.173Z,13.30
2019-03-22T07:15:18.407Z,13.45
2019-03-22T07:17:48.655Z,13.75
2019-03-22T07:20:18.861Z,13.45
2019-03-22T07:22:49.193Z,13.15
2019-03-22T07:25:19.485Z,13.13
2019-03-22T07:27:49.732Z,13.95
2019-03-22T07:30:19.945Z,14.07
2019-03-22T07:32:50.182Z,13.43
2019-03-22T07:35:20.480Z,14.30
2019-03-22T07:37:50.554Z,14.03
2019-03-22T07:40:20.729Z,13.43
2019-03-22T07:42:50.952Z,14.47
2019-03-22T07:45:21.200Z,13.75
2019-03-22T07:47:51.363Z,14.60
2019-03-22T07:50:21.614Z,14.23
2019-03-22T07:52:51.682Z,14.90
2019-03-22T07:55:21.868Z,14.85
2019-03-22T07:57:52.190Z,15.32
2019-03-22T08:00:30.841Z,14.93
2019-03-22T08:02:54.583Z,15.72
2019-03-22T08:05:24.793Z,15.85
2019-03-22T08:07:56.125Z,16.35
2019-03-22T08:10:26.479Z,16.27
2019-03-22T08:12:57.017Z,16.23
2019-03-22T08:15:31.916Z,16.70
2019-03-22T08:18:02.555Z,17.20
2019-03-22T08:20:31.293Z,18.07
2019-03-22T08:23:01.510Z,18.40
2019-03-22T08:25:32.570Z,19.17
2019-03-22T08:28:02.864Z,18.27
2019-03-22T08:30:42.391Z,18.70
2019-03-22T08:33:05.067Z,18.67
2019-03-22T08:35:36.217Z,19.40
2019-03-22T08:38:06.401Z,19.12
2019-03-22T08:40:36.546Z,19.12
2019-03-22T08:43:06.938Z,17.48
2019-03-22T08:45:37.198Z,19.57
2019-03-22T08:48:07.447Z,19.07
2019-03-22T08:50:37.658Z,19.37
2019-03-22T08:53:07.939Z,18.32
2019-03-22T08:55:38.226Z,19.02
2019-03-22T08:58:08.533Z,18.17
2019-03-22T09:00:39.883Z,17.85
2019-03-22T09:03:10.277Z,17.73
2019-03-22T09:05:40.735Z,18.00
2019-03-22T09:08:11.013Z,17.25
2019-03-22T09:10:41.243Z,16.17
2019-03-22T09:13:11.477Z,17.15
2019-03-22T09:15:42.132Z,17.12
2019-03-22T09:18:14.268Z,15.25
2019-03-22T09:20:44.429Z,16.20
2019-03-22T09:23:14.718Z,15.43
2019-03-22T09:25:44.843Z,16.42
2019-03-22T09:28:15.066Z,16.07
2019-03-22T09:30:45.312Z,15.32
2019-03-22T09:33:15.571Z,15.53
2019-03-22T09:35:45.870Z,12.65
2019-03-22T09:38:16.187Z,12.15
2019-03-22T09:40:46.341Z,11.57
2019-03-22T09:43:16.519Z,10.90
2019-03-22T09:45:46.771Z,10.20
2019-03-22T09:48:17.049Z,10.53
2019-03-22T09:50:47.293Z,10.75
2019-03-22T09:53:17.446Z,9.85
2019-03-22T09:55:47.634Z,10.03
2019-03-22T09:58:18.007Z,10.45
2019-03-22T10:00:48.905Z,12.03
2019-03-22T10:03:19.258Z,9.00
2019-03-22T10:05:49.451Z,10.32
2019-03-22T10:08:19.770Z,11.18
2019-03-22T10:10:50.107Z,11.08
2019-03-22T10:13:20.293Z,9.73
2019-03-22T10:15:50.467Z,9.35
2019-03-22T10:18:20.677Z,9.35
2019-03-22T10:20:50.903Z,9.30
2019-03-22T10:23:22.552Z,9.78
2019-03-22T10:25:52.760Z,9.38
2019-03-22T10:28:23.007Z,9.08
2019-03-22T10:30:53.304Z,9.30
2019-03-22T10:33:23.599Z,9.10
2019-03-22T10:35:53.812Z,8.73
2019-03-22T10:38:31.768Z,9.25
2019-03-22T10:40:55.973Z,9.20
2019-03-22T10:43:26.173Z,8.70
2019-03-22T10:45:57.113Z,8.38
2019-03-22T10:48:28.019Z,8.63
2019-03-22T10:50:58.347Z,8.48
2019-03-22T10:53:28.536Z,8.33
2019-03-22T10:56:00.984Z,8.88
2019-03-22T10:58:31.676Z,8.23
2019-03-22T11:01:01.969Z,8.60
2019-03-22T11:03:32.183Z,8.63
2019-03-22T11:06:02.398Z,7.40
2019-03-22T11:08:32.693Z,7.90
2019-03-22T11:11:03.002Z,7.85
2019-03-22T11:13:33.324Z,7.90
2019-03-22T11:16:04.046Z,7.80
2019-03-22T11:18:37.617Z,8.55
2019-03-22T11:21:06.178Z,8.68
2019-03-22T11:23:36.385Z,8.88
2019-03-22T11:26:06.506Z,8.65
2019-03-22T11:28:36.847Z,8.40
2019-03-22T11:31:07.133Z,8.20
2019-03-22T11:33:37.290Z,8.90
2019-03-22T11:36:07.509Z,8.40
2019-03-22T11:38:37.738Z,7.87
2019-03-22T11:41:07.956Z,7.95
2019-03-22T11:43:38.310Z,7.70
2019-03-22T11:46:08.573Z,8.30
2019-03-22T11:48:38.712Z,8.43
2019-03-22T11:51:09.060Z,8.35
2019-03-22T11:53:39.271Z,8.30
2019-03-22T11:56:09.583Z,8.38
2019-03-22T11:58:39.893Z,7.72
2019-03-22T12:01:19.158Z,8.03
2019-03-22T12:03:42.013Z,7.75
2019-03-22T12:06:12.285Z,8.25
2019-03-22T12:08:42.360Z,7.90
2019-03-22T12:11:12.663Z,8.00
2019-03-22T12:13:42.918Z,7.97
2019-03-22T12:16:13.132Z,7.87
2019-03-22T12:18:43.337Z,7.65
2019-03-22T12:21:13.677Z,7.72
2019-03-22T12:23:43.964Z,7.28
2019-03-22T12:26:14.113Z,7.55
2019-03-22T12:28:44.344Z,8.23
2019-03-22T12:31:15.570Z,7.72
2019-03-22T12:33:45.794Z,7.35
2019-03-22T12:36:16.023Z,7.65
2019-03-22T12:38:46.369Z,8.15
2019-03-22T12:41:16.590Z,7.67
2019-03-22T12:43:46.876Z,8.35
2019-03-22T12:46:17.110Z,8.15
2019-03-22T12:48:48.655Z,7.20
2019-03-22T12:51:18.881Z,6.78
2019-03-22T12:53:49.096Z,7.35
2019-03-22T12:56:19.242Z,7.35
2019-03-22T12:58:49.457Z,7.80
2019-03-22T13:01:19.722Z,7.92
2019-03-22T13:03:49.834Z,7.25
2019-03-22T13:06:20.112Z,7.10
2019-03-22T13:08:50.357Z,7.30
2019-03-22T13:11:20.590Z,6.87
2019-03-22T13:13:50.801Z,7.17
2019-03-22T13:16:21.118Z,7.35
2019-03-22T13:18:51.429Z,7.92
2019-03-22T13:21:21.573Z,8.03
2019-03-22T13:23:51.789Z,7.28
2019-03-22T13:26:22.033Z,7.45
2019-03-22T13:28:52.318Z,7.58
2019-03-22T13:31:22.651Z,7.17
2019-03-22T13:33:52.870Z,7.25
2019-03-22T13:36:23.015Z,7.20
2019-03-22T13:38:53.245Z,7.47
2019-03-22T13:41:23.461Z,7.20
2019-03-22T13:43:53.762Z,7.62
2019-03-22T13:46:23.988Z,7.35
2019-03-22T13:48:54.125Z,7.50
2019-03-22T13:51:24.362Z,7.33
2019-03-22T13:53:54.571Z,7.08
2019-03-22T13:56:24.885Z,6.67
2019-03-22T13:58:55.118Z,7.25
2019-03-22T14:01:25.239Z,6.72
2019-03-22T14:03:55.467Z,6.50
2019-03-22T14:06:25.776Z,6.78
2019-03-22T14:08:56.097Z,6.25
2019-03-22T14:11:26.237Z,6.40
2019-03-22T14:13:56.469Z,6.87
2019-03-22T14:16:26.738Z,6.37
2019-03-22T14:18:56.981Z,6.75
2019-03-22T14:21:27.203Z,6.40
2019-03-22T14:23:57.352Z,6.30
2019-03-22T14:26:27.592Z,7.05
2019-03-22T14:28:57.796Z,6.37
2019-03-22T14:31:28.096Z,6.53
2019-03-22T14:33:58.329Z,6.53
2019-03-22T14:36:28.454Z,6.03
2019-03-22T14:38:58.692Z,6.87
2019-03-22T14:41:28.899Z,8.28
2019-03-22T14:43:59.117Z,8.43
2019-03-22T14:46:29.333Z,7.92
2019-03-22T14:48:59.468Z,7.55
2019-03-22T14:51:29.692Z,7.65
2019-03-22T14:53:59.917Z,7.53
2019-03-22T14:56:30.227Z,7.30
2019-03-22T14:59:00.366Z,7.00
2019-03-22T15:01:30.585Z,7.42
2019-03-22T15:04:00.720Z,7.80
2019-03-22T15:06:31.018Z,8.90
2019-03-22T15:09:01.349Z,8.38
2019-03-22T15:11:31.564Z,8.50
2019-03-22T15:14:09.732Z,7.65
2019-03-22T15:17:10.820Z,7.85
2019-03-22T15:20:05.700Z,9.00
2019-03-22T15:22:58.093Z,8.53
2019-03-22T15:25:46.110Z,8.63
2019-03-22T15:28:41.678Z,8.45
2019-03-22T15:31:29.419Z,7.40
2019-03-22T15:34:36.678Z,7.75
2019-03-22T15:37:23.478Z,8.40
2019-03-22T15:40:01.652Z,8.03
2019-03-22T15:42:32.026Z,8.53
2019-03-22T15:45:02.003Z,7.60
2019-03-22T15:47:31.928Z,7.83
2019-03-22T15:50:02.254Z,8.28
2019-03-22T15:52:32.406Z,8.35
2019-03-22T15:55:02.873Z,9.35
2019-03-22T15:57:33.106Z,8.50
2019-03-22T16:00:03.353Z,8.95
2019-03-22T16:02:33.568Z,8.58
2019-03-22T16:05:03.795Z,8.80
2019-03-22T16:07:33.935Z,8.95
2019-03-22T16:10:04.197Z,9.28
2019-03-22T16:12:34.394Z,9.20
2019-03-22T16:15:04.896Z,9.88
2019-03-22T16:17:35.217Z,8.95
2019-03-22T16:20:06.083Z,9.65
2019-03-22T16:22:36.377Z,9.93
2019-03-22T16:25:07.770Z,10.25
2019-03-22T16:27:37.971Z,10.15
2019-03-22T16:30:08.701Z,9.80
2019-03-22T16:32:39.080Z,9.93
2019-03-22T16:35:09.555Z,9.28
2019-03-22T16:37:40.058Z,10.80
2019-03-22T16:40:10.538Z,9.50
2019-03-22T16:42:41.010Z,9.95
2019-03-22T16:45:11.517Z,9.25
2019-03-22T16:47:41.955Z,9.03
2019-03-22T16:50:23.878Z,9.78
2019-03-22T16:52:54.208Z,9.05
2019-03-22T16:55:24.624Z,9.45
2019-03-22T16:57:55.045Z,8.33
2019-03-22T17:00:25.532Z,8.45
2019-03-22T17:02:56.006Z,8.73
2019-03-22T17:05:26.430Z,9.05
2019-03-22T17:07:56.771Z,8.60
2019-03-22T17:10:27.208Z,8.75
2019-03-22T17:12:57.600Z,9.48
2019-03-22T17:15:27.938Z,8.78
2019-03-22T17:17:58.279Z,9.85
2019-03-22T17:20:28.594Z,9.23
2019-03-22T17:22:59.021Z,8.10
2019-03-22T17:25:29.329Z,8.90
2019-03-22T17:27:59.768Z,8.55
2019-03-22T17:30:30.186Z,8.60
2019-03-22T17:33:00.542Z,9.05
2019-03-22T17:35:30.935Z,8.60
2019-03-22T17:38:01.348Z,8.28
2019-03-22T17:40:31.742Z,8.78
2019-03-22T17:43:02.103Z,8.30
2019-03-22T17:45:32.463Z,7.80
2019-03-22T17:48:02.868Z,7.83
2019-03-22T17:50:33.320Z,7.83
2019-03-22T17:53:03.647Z,8.18
2019-03-22T17:55:34.068Z,8.33
2019-03-22T17:58:04.621Z,8.30
2019-03-22T18:00:34.954Z,10.43
2019-03-22T18:03:05.067Z,9.83
2019-03-22T18:05:35.395Z,10.80
2019-03-22T18:08:05.816Z,9.00
2019-03-22T18:10:36.214Z,8.53
2019-03-22T18:13:06.555Z,9.15
2019-03-22T18:15:36.969Z,8.03
2019-03-22T18:18:07.387Z,8.30
2019-03-22T18:20:37.670Z,8.65
2019-03-22T18:23:08.075Z,8.65
2019-03-22T18:25:38.409Z,8.43
2019-03-22T18:28:08.637Z,8.38
2019-03-22T18:30:39.024Z,8.35
2019-03-22T18:33:09.464Z,8.50
2019-03-22T18:35:39.786Z,8.93
2019-03-22T18:38:10.196Z,9.18
2019-03-22T18:40:40.544Z,8.90
2019-03-22T18:43:10.866Z,9.18
2019-03-22T18:45:41.219Z,8.83
2019-03-22T18:48:11.599Z,9.20
2019-03-22T18:50:42.032Z,8.53
2019-03-22T18:53:12.455Z,8.33
2019-03-22T18:55:42.991Z,8.95
2019-03-22T18:58:13.414Z,8.60
2019-03-22T19:00:43.766Z,8.43
2019-03-22T19:03:14.100Z,8.68
2019-03-22T19:05:44.430Z,8.68
2019-03-22T19:08:14.754Z,8.03
2019-03-22T19:10:45.142Z,8.60
2019-03-22T19:13:15.481Z,8.33
2019-03-22T19:15:45.901Z,8.70
2019-03-22T19:18:16.331Z,8.40
2019-03-22T19:20:46.858Z,7.90
2019-03-22T19:23:17.310Z,8.80
2019-03-22T19:25:47.707Z,8.45
2019-03-22T19:28:18.070Z,8.13
2019-03-22T19:30:48.394Z,8.50
2019-03-22T19:33:51.245Z,7.25
2019-03-22T19:36:48.503Z,8.98
2019-03-22T19:39:18.943Z,8.85
2019-03-22T19:41:49.456Z,8.18
2019-03-22T19:44:19.975Z,8.85
2019-03-22T19:46:50.426Z,8.23
2019-03-22T19:49:20.554Z,8.35
2019-03-22T19:51:50.896Z,7.90
2019-03-22T19:54:21.226Z,8.75
2019-03-22T19:56:51.621Z,8.65
2019-03-22T19:59:22.185Z,9.00
2019-03-22T20:01:52.578Z,9.33
2019-03-22T20:04:23.017Z,10.38
2019-03-22T20:06:53.451Z,10.68
2019-03-22T20:09:23.805Z,10.00
2019-03-22T20:11:54.255Z,9.38
2019-03-22T20:14:24.645Z,10.35
2019-03-22T20:16:54.994Z,9.28
2019-03-22T20:19:25.474Z,9.53
2019-03-22T20:21:55.903Z,9.55
2019-03-22T20:24:26.539Z,9.45
2019-03-22T20:26:56.961Z,9.83
2019-03-22T20:29:27.390Z,9.25
2019-03-22T20:31:57.753Z,8.98
2019-03-22T20:34:28.160Z,9.93
2019-03-22T20:36:58.561Z,9.40
2019-03-22T20:39:28.922Z,9.23
2019-03-22T20:41:59.283Z,9.10
2019-03-22T20:44:33.909Z,10.25
2019-03-22T20:47:01.738Z,9.00
2019-03-22T20:49:32.146Z,9.25
2019-03-22T20:52:02.560Z,9.15
2019-03-22T20:54:33.004Z,9.70
2019-03-22T20:57:03.440Z,9.20
2019-03-22T20:59:33.790Z,8.55
2019-03-22T21:02:04.148Z,9.10
2019-03-22T21:04:34.538Z,9.00
2019-03-22T21:07:04.979Z,9.25
2019-03-22T21:09:35.336Z,8.93
2019-03-22T21:12:05.811Z,9.33
2019-03-22T21:14:36.038Z,9.40
2019-03-22T21:17:06.367Z,8.63
2019-03-22T21:19:36.517Z,9.28
2019-03-22T21:22:06.739Z,8.85
2019-03-22T21:24:36.994Z,8.65
2019-03-22T21:27:15.078Z,8.53
2019-03-22T21:29:44.115Z,8.98
2019-03-22T21:32:11.187Z,8.85
2019-03-22T21:34:44.026Z,8.58
2019-03-22T21:37:13.412Z,8.73
2019-03-22T21:39:43.622Z,8.38
2019-03-22T21:42:13.850Z,8.53
2019-03-22T21:44:44.136Z,7.17
2019-03-22T21:47:14.467Z,8.03
2019-03-22T21:49:44.659Z,7.30
2019-03-22T21:52:14.720Z,8.20
2019-03-22T21:54:44.945Z,8.03
2019-03-22T21:57:15.367Z,8.00
2019-03-22T21:59:45.680Z,7.92
2019-03-22T22:02:15.824Z,8.40
2019-03-22T22:04:46.027Z,7.97
2019-03-22T22:07:16.182Z,7.58
2019-03-22T22:09:46.483Z,7.65
2019-03-22T22:12:16.828Z,7.70
2019-03-22T22:14:47.040Z,8.05
2019-03-22T22:17:17.257Z,7.30
2019-03-22T22:19:47.501Z,7.10
2019-03-22T22:22:17.783Z,7.12
2019-03-22T22:24:48.025Z,7.65
2019-03-22T22:27:18.255Z,7.42
2019-03-22T22:29:48.492Z,8.23
2019-03-22T22:32:18.706Z,6.97
2019-03-22T22:34:49.014Z,6.97
2019-03-22T22:37:19.334Z,7.22
2019-03-22T22:39:49.502Z,6.58
2019-03-22T22:42:19.758Z,7.03
2019-03-22T22:44:49.927Z,7.67
2019-03-22T22:47:20.232Z,7.50
2019-03-22T22:49:50.548Z,6.40
2019-03-22T22:52:20.733Z,6.95
2019-03-22T22:54:50.823Z,6.75
2019-03-22T22:57:21.044Z,7.45
2019-03-22T22:59:51.338Z,7.42
2019-03-22T23:02:21.569Z,7.00
2019-03-22T23:04:51.807Z,6.55
2019-03-22T23:07:22.044Z,7.25
2019-03-22T23:09:52.257Z,6.92
2019-03-22T23:12:22.563Z,6.58
2019-03-22T23:14:52.876Z,6.90
2019-03-22T23:17:23.155Z,6.55
2019-03-22T23:19:53.244Z,6.90
2019-03-22T23:22:23.479Z,6.75
2019-03-22T23:24:53.771Z,6.37
2019-03-22T23:27:24.006Z,6.17
2019-03-22T23:29:54.264Z,6.95
2019-03-22T23:32:24.475Z,6.95
2019-03-22T23:34:58.909Z,6.55
2019-03-22T23:37:26.730Z,6.00
2019-03-22T23:39:56.954Z,6.40
2019-03-22T23:42:27.110Z,6.47
2019-03-22T23:44:57.325Z,6.65
2019-03-22T23:47:27.675Z,6.00
2019-03-22T23:49:57.945Z,6.50
2019-03-22T23:52:28.171Z,6.83
2019-03-22T23:54:58.323Z,6.75
2019-03-22T23:57:28.537Z,6.70
2019-03-22T23:59:58.769Z,6.62
